createdAt,value
2022-11-28T00:01:33.361Z,94.33
2022-11-28T00:04:01.761Z,94.06
2022-11-28T00:06:29.897Z,94.22
2022-11-28T00:09:00.244Z,94.30
2022-11-28T00:11:28.383Z,94.23
2022-11-28T00:13:56.381Z,94.25
2022-11-28T00:16:24.535Z,94.07
2022-11-28T00:18:54.275Z,94.23
2022-11-28T00:21:24.827Z,94.05
2022-11-28T00:23:52.902Z,94.34
2022-11-28T00:26:24.700Z,94.10
2022-11-28T00:28:53.074Z,93.93
2022-11-28T00:31:24.027Z,93.99
2022-11-28T00:33:52.024Z,93.91
2022-11-28T00:36:20.876Z,94.09
2022-11-28T00:38:49.965Z,94.10
2022-11-28T00:41:21.250Z,93.86
2022-11-28T00:43:51.032Z,93.90
2022-11-28T00:46:21.630Z,93.88
2022-11-28T00:48:50.440Z,93.79
2022-11-28T00:51:19.652Z,93.78
2022-11-28T00:53:49.567Z,93.75
2022-11-28T00:56:20.655Z,93.97
2022-11-28T00:58:51.574Z,94.00
2022-11-28T01:01:19.482Z,93.97
2022-11-28T01:03:49.650Z,93.63
2022-11-28T01:06:23.376Z,93.59
2022-11-28T01:08:52.143Z,93.93
2022-11-28T01:11:21.173Z,93.76
2022-11-28T01:13:49.648Z,93.57
2022-11-28T01:16:17.760Z,93.60
2022-11-28T01:18:45.706Z,93.93
2022-11-28T01:21:14.117Z,93.85
2022-11-28T01:23:42.135Z,93.53
2022-11-28T01:26:15.266Z,93.69
2022-11-28T01:28:43.375Z,93.70
2022-11-28T01:31:14.389Z,93.57
2022-11-28T01:33:43.120Z,93.26
2022-11-28T01:36:12.895Z,93.21
2022-11-28T01:38:41.435Z,93.18
2022-11-28T01:41:10.348Z,92.80
2022-11-28T01:43:56.598Z,92.99
2022-11-28T01:46:24.585Z,92.60
2022-11-28T01:48:54.344Z,92.96
2022-11-28T01:51:22.306Z,92.98
2022-11-28T01:53:50.313Z,92.88
2022-11-28T01:56:23.306Z,92.81
2022-11-28T01:58:59.701Z,92.96
2022-11-28T02:01:27.665Z,92.71
2022-11-28T02:03:58.111Z,92.75
2022-11-28T02:06:27.559Z,92.62
2022-11-28T02:08:56.221Z,92.83
2022-11-28T02:11:56.339Z,92.93
2022-11-28T02:15:05.729Z,93.12
2022-11-28T02:17:58.314Z,92.96
2022-11-28T02:20:44.284Z,93.09
2022-11-28T02:23:20.965Z,93.03
2022-11-28T02:26:07.393Z,93.21
2022-11-28T02:28:46.006Z,93.26
2022-11-28T02:31:44.967Z,93.36
2022-11-28T02:34:23.634Z,93.23
2022-11-28T02:37:01.077Z,93.21
2022-11-28T02:39:31.567Z,93.42
2022-11-28T02:42:25.686Z,93.45
2022-11-28T02:45:20.545Z,93.54
2022-11-28T02:48:02.581Z,93.63
2022-11-28T02:50:35.886Z,93.61
2022-11-28T02:53:07.534Z,93.67
2022-11-28T02:55:41.668Z,93.63
2022-11-28T02:58:11.715Z,93.71
2022-11-28T03:00:44.183Z,93.65
2022-11-28T03:03:30.593Z,93.74
2022-11-28T03:06:01.751Z,93.67
2022-11-28T03:08:48.197Z,93.88
2022-11-28T03:11:21.671Z,93.95
2022-11-28T03:13:49.553Z,93.89
2022-11-28T03:16:29.384Z,93.93
2022-11-28T03:19:24.900Z,94.22
2022-11-28T03:22:03.183Z,94.06
2022-11-28T03:24:42.839Z,94.28
2022-11-28T03:27:37.971Z,94.05
2022-11-28T03:30:19.645Z,94.17
2022-11-28T03:32:53.464Z,94.34
2022-11-28T03:35:26.511Z,94.30
2022-11-28T03:38:00.982Z,94.44
2022-11-28T03:40:36.200Z,94.39
2022-11-28T03:43:08.513Z,94.42
2022-11-28T03:45:40.966Z,94.33
2022-11-28T03:48:30.883Z,94.51
2022-11-28T03:51:05.522Z,94.51
2022-11-28T03:53:48.278Z,94.58
2022-11-28T03:56:25.129Z,94.58
2022-11-28T03:58:57.675Z,94.43
2022-11-28T04:01:36.988Z,94.54
2022-11-28T04:04:28.237Z,94.54
2022-11-28T04:07:05.940Z,94.60
2022-11-28T04:09:47.785Z,94.88
2022-11-28T04:12:33.607Z,94.84
2022-11-28T04:15:08.727Z,94.84
2022-11-28T04:17:50.048Z,94.82
2022-11-28T04:20:30.096Z,94.89
2022-11-28T04:23:07.471Z,94.70
2022-11-28T04:25:38.366Z,94.79
2022-11-28T04:28:14.896Z,94.78
2022-11-28T04:30:45.641Z,94.76
2022-11-28T04:33:17.194Z,94.81
2022-11-28T04:35:51.969Z,94.78
2022-11-28T04:38:23.407Z,94.64
2022-11-28T04:40:57.095Z,94.99
2022-11-28T04:43:30.651Z,94.85
2022-11-28T04:46:09.607Z,94.93
2022-11-28T04:48:37.827Z,94.81
2022-11-28T04:51:28.005Z,94.85
2022-11-28T04:54:06.820Z,95.13
2022-11-28T04:56:42.940Z,95.20
2022-11-28T04:59:12.730Z,95.02
2022-11-28T05:01:43.869Z,95.03
2022-11-28T05:04:14.167Z,94.97
2022-11-28T05:06:42.037Z,95.17
2022-11-28T05:09:11.682Z,95.08
2022-11-28T05:11:39.966Z,95.36
2022-11-28T05:14:08.250Z,95.02
2022-11-28T05:16:36.271Z,95.32
2022-11-28T05:19:04.283Z,95.16
2022-11-28T05:21:32.196Z,95.23
2022-11-28T05:24:00.135Z,95.20
2022-11-28T05:26:32.131Z,95.06
2022-11-28T05:29:00.165Z,95.11
2022-11-28T05:31:28.755Z,95.09
2022-11-28T05:33:57.143Z,95.08
2022-11-28T05:36:25.027Z,95.22
2022-11-28T05:38:52.892Z,95.18
2022-11-28T05:41:23.301Z,95.17
2022-11-28T05:43:51.871Z,95.03
2022-11-28T05:46:20.611Z,95.12
2022-11-28T05:48:48.573Z,95.13
2022-11-28T05:51:17.218Z,95.31
2022-11-28T05:53:45.524Z,95.09
2022-11-28T05:56:16.505Z,95.08
2022-11-28T05:58:44.695Z,95.04
2022-11-28T06:01:18.602Z,95.05
2022-11-28T06:03:47.183Z,95.37
2022-11-28T06:06:20.969Z,95.20
2022-11-28T06:08:49.882Z,95.09
2022-11-28T06:11:19.863Z,95.26
2022-11-28T06:13:49.002Z,95.15
2022-11-28T06:16:20.341Z,95.28
2022-11-28T06:18:52.100Z,95.30
2022-11-28T06:21:21.249Z,95.16
2022-11-28T06:23:49.718Z,95.01
2022-11-28T06:26:21.655Z,94.99
2022-11-28T06:28:50.227Z,95.07
2022-11-28T06:31:21.357Z,95.22
2022-11-28T06:33:50.122Z,95.11
2022-11-28T06:36:18.969Z,94.90
2022-11-28T06:38:47.472Z,94.84
2022-11-28T06:41:19.100Z,94.84
2022-11-28T06:43:47.070Z,94.87
2022-11-28T06:46:18.917Z,94.94
2022-11-28T06:48:48.438Z,94.78
2022-11-28T06:51:17.634Z,94.67
2022-11-28T06:53:45.711Z,94.63
2022-11-28T06:56:16.253Z,94.62
2022-11-28T06:58:45.260Z,94.75
2022-11-28T07:01:21.762Z,94.73
2022-11-28T07:03:49.833Z,94.73
2022-11-28T07:06:19.914Z,94.96
2022-11-28T07:08:48.532Z,94.67
2022-11-28T07:11:25.601Z,94.52
2022-11-28T07:13:54.956Z,94.53
2022-11-28T07:16:26.000Z,94.60
2022-11-28T07:18:54.719Z,94.54
2022-11-28T07:21:24.127Z,94.44
2022-11-28T07:23:52.494Z,94.49
2022-11-28T07:26:21.749Z,94.59
2022-11-28T07:28:51.353Z,94.55
2022-11-28T07:31:26.773Z,94.49
2022-11-28T07:33:54.870Z,94.34
2022-11-28T07:36:25.565Z,94.61
2022-11-28T07:38:56.835Z,94.67
2022-11-28T07:41:27.322Z,94.60
2022-11-28T07:44:01.039Z,94.54
2022-11-28T07:46:31.167Z,94.38
2022-11-28T07:48:59.619Z,94.56
2022-11-28T07:51:31.578Z,94.40
2022-11-28T07:54:00.481Z,94.51
2022-11-28T07:56:50.203Z,94.06
2022-11-28T07:59:19.054Z,94.07
2022-11-28T08:01:46.979Z,94.20
2022-11-28T08:04:15.007Z,94.09
2022-11-28T08:06:44.388Z,94.40
2022-11-28T08:09:12.469Z,94.25
2022-11-28T08:11:41.123Z,94.15
2022-11-28T08:14:09.406Z,94.21
2022-11-28T08:16:38.043Z,94.37
2022-11-28T08:19:05.964Z,94.09
2022-11-28T08:21:35.411Z,93.97
2022-11-28T08:24:04.976Z,94.19
2022-11-28T08:26:33.270Z,94.05
2022-11-28T08:29:02.443Z,93.99
2022-11-28T08:31:33.912Z,94.17
2022-11-28T08:34:04.544Z,93.62
2022-11-28T08:36:32.775Z,93.66
2022-11-28T08:39:23.980Z,93.57
2022-11-28T08:41:49.907Z,93.33
2022-11-28T08:44:17.881Z,93.37
2022-11-28T08:46:45.781Z,93.28
2022-11-28T08:49:13.679Z,93.32
2022-11-28T08:51:41.849Z,93.62
2022-11-28T08:54:09.790Z,93.38
2022-11-28T08:56:37.713Z,93.74
2022-11-28T08:59:07.136Z,93.51
2022-11-28T09:01:35.147Z,93.45
2022-11-28T09:04:04.334Z,93.72
2022-11-28T09:06:32.374Z,93.92
2022-11-28T09:09:02.065Z,93.78
2022-11-28T09:11:30.149Z,93.82
2022-11-28T09:13:58.101Z,93.39
2022-11-28T09:16:26.004Z,93.45
2022-11-28T09:18:55.187Z,93.51
2022-11-28T09:21:23.402Z,93.37
2022-11-28T09:23:54.413Z,93.32
2022-11-28T09:26:24.769Z,93.53
2022-11-28T09:28:53.634Z,93.41
2022-11-28T09:31:21.985Z,93.48
2022-11-28T09:33:50.148Z,93.20
2022-11-28T09:36:20.906Z,93.13
2022-11-28T09:38:49.625Z,93.03
2022-11-28T09:41:32.756Z,93.43
2022-11-28T09:44:14.979Z,93.09
2022-11-28T09:46:44.412Z,93.13
2022-11-28T09:49:36.783Z,92.81
2022-11-28T09:52:22.939Z,92.90
2022-11-28T09:55:02.429Z,92.91
2022-11-28T09:57:48.348Z,93.03
2022-11-28T10:00:31.118Z,92.69
2022-11-28T10:03:04.911Z,92.86
2022-11-28T10:05:57.140Z,92.88
2022-11-28T10:08:46.919Z,92.65
2022-11-28T10:11:50.603Z,92.46
2022-11-28T10:14:32.932Z,92.17
2022-11-28T10:17:14.805Z,92.17
2022-11-28T10:20:02.920Z,92.86
2022-11-28T10:22:55.892Z,92.82
2022-11-28T10:25:32.583Z,92.79
2022-11-28T10:28:01.597Z,92.78
2022-11-28T10:30:34.380Z,92.78
2022-11-28T10:33:40.012Z,92.03
2022-11-28T10:36:14.675Z,91.66
2022-11-28T10:38:42.621Z,91.97
2022-11-28T10:41:23.016Z,92.10
2022-11-28T10:44:17.053Z,91.73
2022-11-28T10:47:00.851Z,91.19
2022-11-28T10:49:54.010Z,91.07
2022-11-28T10:52:30.181Z,90.46
2022-11-28T10:55:00.531Z,90.96
2022-11-28T10:57:39.860Z,91.28
2022-11-28T11:00:20.021Z,89.87
2022-11-28T11:02:50.107Z,89.41
2022-11-28T11:05:22.074Z,89.14
2022-11-28T11:07:56.434Z,88.98
2022-11-28T11:10:33.814Z,89.23
2022-11-28T11:13:15.965Z,88.34
2022-11-28T11:15:46.023Z,87.86
2022-11-28T11:18:30.392Z,88.05
2022-11-28T11:21:19.253Z,87.33
2022-11-28T11:23:48.971Z,88.28
2022-11-28T11:26:25.313Z,84.61
2022-11-28T11:28:53.458Z,85.74
2022-11-28T11:31:32.953Z,82.74
2022-11-28T11:34:04.921Z,83.60
2022-11-28T11:36:36.397Z,83.76
2022-11-28T11:39:19.114Z,84.25
2022-11-28T11:42:07.232Z,83.88
2022-11-28T11:44:36.735Z,84.39
2022-11-28T11:47:09.905Z,82.91
2022-11-28T11:49:50.960Z,82.16
2022-11-28T11:52:24.503Z,82.24
2022-11-28T11:54:58.831Z,81.01
2022-11-28T11:57:38.176Z,82.29
2022-11-28T12:00:18.469Z,80.77
2022-11-28T12:02:50.499Z,82.00
2022-11-28T12:05:28.093Z,82.86
2022-11-28T12:08:11.448Z,82.17
2022-11-28T12:10:53.997Z,81.59
2022-11-28T12:13:24.244Z,80.77
2022-11-28T12:16:29.550Z,80.42
2022-11-28T12:19:33.657Z,81.04
2022-11-28T12:22:29.483Z,81.47
2022-11-28T12:25:13.313Z,81.29
2022-11-28T12:27:48.516Z,79.60
2022-11-28T12:30:26.687Z,79.80
2022-11-28T12:33:20.903Z,79.07
2022-11-28T12:36:15.198Z,79.26
2022-11-28T12:39:01.026Z,78.75
2022-11-28T12:41:45.790Z,78.03
2022-11-28T12:44:19.747Z,78.15
2022-11-28T12:47:01.073Z,78.46
2022-11-28T12:49:54.253Z,77.96
2022-11-28T12:52:38.534Z,77.91
2022-11-28T12:55:25.039Z,77.82
2022-11-28T12:58:09.114Z,77.57
2022-11-28T13:00:50.749Z,77.03
2022-11-28T13:03:42.992Z,77.71
2022-11-28T13:06:35.471Z,77.36
2022-11-28T13:09:10.457Z,77.41
2022-11-28T13:11:56.982Z,77.97
2022-11-28T13:14:49.187Z,78.08
2022-11-28T13:17:39.026Z,77.91
2022-11-28T13:20:19.987Z,78.26
2022-11-28T13:23:03.088Z,78.09
2022-11-28T13:25:49.208Z,78.29
2022-11-28T13:28:28.998Z,78.22
2022-11-28T13:31:04.566Z,78.58
2022-11-28T13:33:39.685Z,78.25
2022-11-28T13:38:35.189Z,78.25
2022-11-28T13:39:13.501Z,78.35
2022-11-28T13:42:21.406Z,78.75
2022-11-28T13:44:57.599Z,78.76
2022-11-28T13:47:35.253Z,79.17
2022-11-28T13:50:21.932Z,78.58
2022-11-28T13:53:03.005Z,78.10
2022-11-28T13:55:44.972Z,76.51
2022-11-28T13:58:31.301Z,75.36
2022-11-28T14:01:03.659Z,74.80
2022-11-28T14:03:36.576Z,72.74
2022-11-28T14:06:07.162Z,72.03
2022-11-28T14:08:41.572Z,71.40
2022-11-28T14:11:41.992Z,72.10
2022-11-28T14:14:31.298Z,71.31
2022-11-28T14:17:13.989Z,72.73
2022-11-28T14:20:10.759Z,73.03
2022-11-28T14:22:41.736Z,72.52
2022-11-28T14:25:22.726Z,71.96
2022-11-28T14:28:17.069Z,72.04
2022-11-28T14:30:46.863Z,72.84
2022-11-28T14:33:32.704Z,73.32
2022-11-28T14:36:07.043Z,73.30
2022-11-28T14:38:34.968Z,73.75
2022-11-28T14:41:15.339Z,73.44
2022-11-28T14:43:44.684Z,73.33
2022-11-28T14:46:15.790Z,72.98
2022-11-28T14:48:58.804Z,73.04
2022-11-28T14:51:48.612Z,73.14
2022-11-28T14:54:37.510Z,73.70
2022-11-28T14:57:25.121Z,74.10
2022-11-28T14:59:54.720Z,74.13
2022-11-28T15:02:45.634Z,74.63
2022-11-28T15:05:45.354Z,74.71
2022-11-28T15:08:16.346Z,74.63
2022-11-28T15:10:56.537Z,74.70
2022-11-28T15:13:45.881Z,74.86
2022-11-28T15:16:17.382Z,75.12
2022-11-28T15:18:59.628Z,75.31
2022-11-28T15:21:29.313Z,75.36
2022-11-28T15:23:57.372Z,75.49
2022-11-28T15:26:30.516Z,75.72
2022-11-28T15:29:19.647Z,75.70
2022-11-28T15:31:51.088Z,75.96
2022-11-28T15:34:33.638Z,76.10
2022-11-28T15:37:07.480Z,76.33
2022-11-28T15:39:40.441Z,76.37
2022-11-28T15:42:21.491Z,76.60
2022-11-28T15:44:56.765Z,76.72
2022-11-28T15:47:26.942Z,76.81
2022-11-28T15:50:02.460Z,77.04
2022-11-28T15:52:30.714Z,77.17
2022-11-28T15:54:58.728Z,77.09
2022-11-28T15:57:34.295Z,77.47
2022-11-28T16:00:03.342Z,77.55
2022-11-28T16:02:48.834Z,77.67
2022-11-28T16:05:23.606Z,77.70
2022-11-28T16:07:51.844Z,77.86
2022-11-28T16:10:37.966Z,78.05
2022-11-28T16:13:14.079Z,78.42
2022-11-28T16:15:49.849Z,78.46
2022-11-28T16:18:19.636Z,78.40
2022-11-28T16:20:48.116Z,78.46
2022-11-28T16:23:34.163Z,78.61
2022-11-28T16:26:33.280Z,78.57
2022-11-28T16:29:07.162Z,78.93
2022-11-28T16:31:44.196Z,79.42
2022-11-28T16:34:15.046Z,79.60
2022-11-28T16:36:50.253Z,79.52
2022-11-28T16:39:18.351Z,79.58
2022-11-28T16:41:52.162Z,79.63
2022-11-28T16:44:23.810Z,80.05
2022-11-28T16:46:59.572Z,80.95
2022-11-28T16:49:36.413Z,80.45
2022-11-28T16:52:22.814Z,81.00
2022-11-28T16:54:52.333Z,81.01
2022-11-28T16:57:45.937Z,81.16
2022-11-28T17:00:30.760Z,81.28
2022-11-28T17:03:39.909Z,81.84
2022-11-28T17:06:21.287Z,82.74
2022-11-28T17:08:49.665Z,82.50
2022-11-28T17:11:29.561Z,82.84
2022-11-28T17:14:10.280Z,82.89
2022-11-28T17:16:47.157Z,83.60
2022-11-28T17:19:24.718Z,83.97
2022-11-28T17:21:59.866Z,83.81
2022-11-28T17:24:35.923Z,83.75
2022-11-28T17:27:14.669Z,83.99
2022-11-28T17:29:50.376Z,84.29
2022-11-28T17:32:38.478Z,84.18
2022-11-28T17:35:25.447Z,84.68
2022-11-28T17:37:53.384Z,84.70
2022-11-28T17:40:33.288Z,84.89
2022-11-28T17:43:01.553Z,84.74
2022-11-28T17:45:32.363Z,85.37
2022-11-28T17:48:00.325Z,85.26
2022-11-28T17:50:28.713Z,85.14
2022-11-28T17:52:56.912Z,85.52
2022-11-28T17:55:25.046Z,85.70
2022-11-28T17:57:54.231Z,85.68
2022-11-28T18:00:22.683Z,85.96
2022-11-28T18:02:51.009Z,85.76
2022-11-28T18:05:19.134Z,85.62
2022-11-28T18:07:47.161Z,85.39
2022-11-28T18:10:15.343Z,85.31
2022-11-28T18:12:43.418Z,85.77
2022-11-28T18:15:11.444Z,85.64
2022-11-28T18:17:39.469Z,85.71
2022-11-28T18:20:08.480Z,85.69
2022-11-28T18:22:36.379Z,85.49
2022-11-28T18:25:05.844Z,85.55
2022-11-28T18:27:34.781Z,85.76
2022-11-28T18:30:03.264Z,85.79
2022-11-28T18:32:32.593Z,85.74
2022-11-28T18:35:00.948Z,86.11
2022-11-28T18:37:28.940Z,86.10
2022-11-28T18:39:56.870Z,86.22
2022-11-28T18:42:24.883Z,86.27
2022-11-28T18:44:53.416Z,86.31
2022-11-28T18:47:21.382Z,86.43
2022-11-28T18:49:49.308Z,86.54
2022-11-28T18:52:17.295Z,86.59
2022-11-28T18:54:46.123Z,86.94
2022-11-28T18:57:14.598Z,86.75
2022-11-28T18:59:49.780Z,86.97
2022-11-28T19:02:21.141Z,86.87
2022-11-28T19:04:49.231Z,87.00
2022-11-28T19:07:17.226Z,87.09
2022-11-28T19:09:45.784Z,87.06
2022-11-28T19:12:14.375Z,87.09
2022-11-28T19:14:42.457Z,87.23
2022-11-28T19:17:12.212Z,87.10
2022-11-28T19:19:41.389Z,86.99
2022-11-28T19:22:11.022Z,86.84
2022-11-28T19:24:40.168Z,86.81
2022-11-28T19:27:13.887Z,87.02
2022-11-28T19:29:43.264Z,87.09
2022-11-28T19:32:12.692Z,86.93
2022-11-28T19:34:40.625Z,87.19
2022-11-28T19:37:08.815Z,87.19
2022-11-28T19:39:37.110Z,87.27
2022-11-28T19:42:05.197Z,87.38
2022-11-28T19:44:33.349Z,87.47
2022-11-28T19:47:01.838Z,87.22
2022-11-28T19:49:30.028Z,87.20
2022-11-28T19:51:58.606Z,87.13
2022-11-28T19:54:27.054Z,87.01
2022-11-28T19:56:57.901Z,87.03
2022-11-28T19:59:27.413Z,87.16
2022-11-28T20:01:55.683Z,87.22
2022-11-28T20:04:23.850Z,87.22
2022-11-28T20:06:51.767Z,87.22
2022-11-28T20:09:20.067Z,87.32
2022-11-28T20:11:48.441Z,87.23
2022-11-28T20:14:18.682Z,87.54
2022-11-28T20:16:47.116Z,87.82
2022-11-28T20:19:16.205Z,87.85
2022-11-28T20:21:46.466Z,87.77
2022-11-28T20:24:16.164Z,87.92
2022-11-28T20:26:45.776Z,87.81
2022-11-28T20:29:16.664Z,87.79
2022-11-28T20:31:47.774Z,87.71
2022-11-28T20:34:19.079Z,87.80
2022-11-28T20:36:53.380Z,87.62
2022-11-28T20:39:21.496Z,87.76
2022-11-28T20:41:49.582Z,87.98
2022-11-28T20:44:19.118Z,88.02
2022-11-28T20:46:49.544Z,88.12
2022-11-28T20:49:18.330Z,88.14
2022-11-28T20:51:46.688Z,88.23
2022-11-28T20:54:14.814Z,88.25
2022-11-28T20:57:19.267Z,88.36
2022-11-28T20:59:32.606Z,88.71
2022-11-28T21:02:00.675Z,88.71
2022-11-28T21:04:28.711Z,88.77
2022-11-28T21:06:56.705Z,88.49
2022-11-28T21:09:24.804Z,88.48
2022-11-28T21:11:58.100Z,88.38
2022-11-28T21:14:32.232Z,88.37
2022-11-28T21:17:00.248Z,88.67
2022-11-28T21:19:28.190Z,88.61
2022-11-28T21:21:56.201Z,88.65
2022-11-28T21:24:24.323Z,88.55
2022-11-28T21:26:54.329Z,88.23
2022-11-28T21:29:24.173Z,88.27
2022-11-28T21:31:54.474Z,88.23
2022-11-28T21:34:22.975Z,88.40
2022-11-28T21:36:51.271Z,88.61
2022-11-28T21:39:20.876Z,88.40
2022-11-28T21:41:51.076Z,88.62
2022-11-28T21:44:19.488Z,88.55
2022-11-28T21:46:47.515Z,88.35
2022-11-28T21:49:17.312Z,88.27
2022-11-28T21:51:45.583Z,88.32
2022-11-28T21:54:13.830Z,88.45
2022-11-28T21:56:42.045Z,88.39
2022-11-28T21:59:09.991Z,88.53
2022-11-28T22:01:38.306Z,88.43
2022-11-28T22:04:06.824Z,88.31
2022-11-28T22:06:34.824Z,88.62
2022-11-28T22:11:53.926Z,88.53
2022-11-28T22:14:21.839Z,88.67
2022-11-28T22:16:49.728Z,88.77
2022-11-28T22:19:18.089Z,88.45
2022-11-28T22:21:54.200Z,88.49
2022-11-28T22:24:23.700Z,88.08
2022-11-28T22:26:52.850Z,88.26
2022-11-28T22:29:20.839Z,88.24
2022-11-28T22:31:50.037Z,88.51
2022-11-28T22:34:19.131Z,88.49
2022-11-28T22:36:47.080Z,88.47
2022-11-28T22:39:15.379Z,88.63
2022-11-28T22:41:43.389Z,88.37
2022-11-28T22:44:12.339Z,88.35
2022-11-28T22:46:40.342Z,88.48
2022-11-28T22:49:10.708Z,88.52
2022-11-28T22:51:40.259Z,88.54
2022-11-28T22:54:12.519Z,88.63
2022-11-28T22:56:40.941Z,88.49
2022-11-28T22:59:14.504Z,88.42
2022-11-28T23:01:43.712Z,88.78
2022-11-28T23:04:12.376Z,88.64
2022-11-28T23:06:40.615Z,88.79
2022-11-28T23:09:09.352Z,88.83
2022-11-28T23:11:38.590Z,89.01
2022-11-28T23:14:06.724Z,88.84
2022-11-28T23:16:38.170Z,88.77
2022-11-28T23:19:11.753Z,88.85
2022-11-28T23:21:42.683Z,89.12
2022-11-28T23:24:14.786Z,89.01
2022-11-28T23:26:44.897Z,88.86
2022-11-28T23:29:14.674Z,88.84
2022-11-28T23:31:43.998Z,88.85
2022-11-28T23:34:12.417Z,89.07
2022-11-28T23:36:43.168Z,88.80
2022-11-28T23:39:15.204Z,88.79
2022-11-28T23:41:44.205Z,88.98
2022-11-28T23:44:13.544Z,89.20
2022-11-28T23:46:42.082Z,89.30
2022-11-28T23:51:43.455Z,89.34
2022-11-28T23:54:17.431Z,89.21
2022-11-28T23:56:45.385Z,89.11
2022-11-28T23:59:18.886Z,89.15
